Flight Track Log - Related Links

Times and Time Zones

All times are in EDT time to prevent confusion due to time zone crossing. See the JBU732 flight status page for this flight to view local times or setup timezone preferences in your user account.

Time Position Orientation Groundspeed Altitude Reporting Facility
EDT Latitude Longitude Course Direction KTS MPH feet Rate Location/Type
Sun 11:15:05 AM 18.5333 -67.1167 309° West 230 265 2,000  Level San Juan Center
Sun 11:16:00 AM 18.6920 -67.3671 311° West  Level FlightAware Approximate
Sun 11:16:06 AM 18.5667 -67.2000 293° West 300 345 5,100  Level San Juan Center
Sun 11:17:00 AM 18.7648 -67.4638 305° West  Level FlightAware Approximate
Sun 11:17:06 AM 18.6167 -67.2667 308° West 280 322 8,600  Level San Juan Center
Sun 11:18:00 AM 18.8243 -67.5531 305° West  Level FlightAware Approximate
Sun 11:18:06 AM 18.6667 -67.3333 308° West 280 322 10,700  Level San Juan Center
Sun 11:19:00 AM 18.8911 -67.6361 309° West  Level FlightAware Approximate
Sun 11:19:07 AM 18.7167 -67.4000 308° West 350 403 12,100  Level San Juan Center
Sun 11:20:00 AM 18.9568 -67.7205 309° West  Level FlightAware Approximate
Sun 11:20:07 AM 18.7833 -67.5000 305° West 380 437 14,400  Level San Juan Center
Sun 11:21:07 AM 18.8500 -67.5833 310° West 380 437 16,300 1,800 Climbing San Juan Center
Sun 11:22:07 AM 18.9167 -67.6833 305° West 410 472 18,000 1,686 Climbing San Juan Center
Sun 11:23:08 AM 18.9833 -67.7667 310° West 410 472 19,700 1,636 Climbing San Juan Center
Sun 11:24:08 AM 19.0667 -67.8667 311° West 420 483 21,300 1,650 Climbing San Juan Center
Sun 11:25:08 AM 19.1333 -67.9667 305° West 430 495 23,000 1,450 Climbing San Juan Center
Sun 11:26:08 AM 19.2167 -68.0667 311° West 430 495 24,200 1,200 Climbing San Juan Center
Sun 11:27:08 AM 19.2833 -68.1667 305° West 430 495 25,400 1,091 Climbing San Juan Center
Sun 11:28:09 AM 19.3667 -68.2667 311° West 440 506 26,400 961 Climbing San Juan Center
Sun 11:30:34 AM 19.5583 -68.5194 309° West 536 617 28,700 937 Climbing Miami Center
Sun 11:31:34 AM 19.6375 -68.6422 304° West 491 565 29,600 950 Climbing Miami Center
Sun 11:32:34 AM 19.7078 -68.7544 304° West 473 544 30,600 1,200 Climbing Miami Center
Sun 11:33:34 AM 19.7761 -68.8692 302° West 462 532 32,000 1,350 Climbing Miami Center
Sun 11:34:34 AM 19.8442 -68.9819 303° West 462 532 33,300 1,500 Climbing Miami Center
Sun 11:35:34 AM 19.9078 -69.0861 303° West 444 511 35,000 1,150 Climbing Miami Center
Sun 11:36:34 AM 19.9731 -69.1858 305° West 429 494 35,600 500 Climbing Miami Center
Sun 11:37:34 AM 20.0344 -69.2906 302° West 418 481 36,000 200 Climbing Miami Center
Sun 11:38:34 AM 20.0975 -69.3928 303° West 418 481 36,000  Level Miami Center
Sun 11:39:34 AM 20.1608 -69.4997 302° West 418 481 36,000  Level Miami Center
Sun 11:40:34 AM 20.2242 -69.6022 303° West 418 481 36,000 -50 Level Miami Center
Sun 11:41:34 AM 20.2872 -69.7047 303° West 418 481 35,900 -50 Descending Miami Center
Sun 11:42:34 AM 20.3503 -69.8097 303° West 418 481 35,900 50 Level Miami Center
Sun 11:43:34 AM 20.4133 -69.9147 303° West 418 481 36,000 50 Climbing Miami Center
Sun 11:44:34 AM 20.4781 -70.0153 305° West 418 481 36,000  Level Miami Center
Sun 11:45:34 AM 20.5392 -70.1231 301° West 423 487 36,000  Level Miami Center
Sun 11:46:34 AM 20.6019 -70.2261 303° West 418 481 36,000  Level Miami Center
Sun 11:47:34 AM 20.6625 -70.3294 302° West 418 481 36,000  Level Miami Center
Sun 11:48:34 AM 20.7253 -70.4328 303° West 418 481 36,000 -50 Level Miami Center
Sun 11:49:34 AM 20.7878 -70.5361 303° West 418 481 35,900  Descending Miami Center
Sun 11:50:34 AM 20.8483 -70.6397 302° West 418 481 36,000 50 Climbing Miami Center
Sun 11:51:34 AM 20.9108 -70.7433 303° West 418 481 36,000  Level Miami Center
Sun 11:52:34 AM 20.9733 -70.8472 303° West 418 481 36,000  Level Miami Center
Sun 11:53:34 AM 21.0336 -70.9511 302° West 411 473 36,000  Level Miami Center
Sun 11:54:34 AM 21.0939 -71.0550 302° West 411 473 36,000  Level Miami Center
Sun 11:55:34 AM 21.1539 -71.1592 302° West 411 473 36,000  Level Miami Center
Sun 11:56:34 AM 21.2161 -71.2633 303° West 411 473 36,000  Level Miami Center
Sun 11:57:34 AM 21.2717 -71.3589 302° West 416 479 36,000  Level Miami Center
Sun 11:58:34 AM 21.3361 -71.4631 304° West 416 479 36,000  Level Miami Center
Sun 11:59:34 AM 21.3981 -71.5653 303° West 416 479 36,000  Level Miami Center
Sun 12:00:34 PM 21.4600 -71.6722 302° West 416 479 36,000  Level Miami Center
Sun 12:01:34 PM 21.5197 -71.7744 302° West 416 479 36,000  Level Miami Center
Sun 12:02:34 PM 21.5817 -71.8794 302° West 416 479 36,000  Level Miami Center
Sun 12:03:34 PM 21.6433 -71.9842 302° West 416 479 36,000  Level Miami Center
Sun 12:04:34 PM 21.7053 -72.0892 302° West 416 479 36,000  Level Miami Center
Sun 12:05:34 PM 21.7689 -72.1961 303° West 416 479 36,000  Level Miami Center
Sun 12:06:34 PM 21.8283 -72.2992 302° West 416 479 36,000  Level Miami Center
Sun 12:07:34 PM 21.8922 -72.4067 303° West 416 479 36,000  Level Miami Center
Sun 12:08:34 PM 21.9517 -72.5142 301° West 416 479 36,000  Level Miami Center
Sun 12:09:34 PM 22.0131 -72.6175 303° West 416 479 36,000  Level Miami Center
Sun 12:10:34 PM 22.0744 -72.7253 302° West 416 479 36,000  Level Miami Center
Sun 12:11:34 PM 22.1356 -72.8286 303° West 416 479 36,000  Level Miami Center
Sun 12:12:34 PM 22.1947 -72.9300 302° West 411 473 36,000  Level Miami Center
Sun 12:13:34 PM 22.2517 -73.0336 301° West 411 473 36,000 -50 Level Miami Center
Sun 12:14:34 PM 22.3125 -73.1350 303° West 401 461 35,900 150 Descending Miami Center
Sun 12:15:34 PM 22.3714 -73.2389 302° West 401 461 36,300 550 Climbing Miami Center
Sun 12:16:34 PM 22.4303 -73.3450 301° West 401 461 37,000 800 Climbing Miami Center
Sun 12:17:34 PM 22.4956 -73.4581 302° West 406 467 37,900 500 Climbing Miami Center
Sun 12:18:34 PM 22.5375 -73.5647 293° West 389 448 38,000 50 Climbing Miami Center
Sun 12:19:34 PM 22.5528 -73.6881 278° West 389 448 38,000  Level Miami Center
Sun 12:20:34 PM 22.5883 -73.7997 289° West 398 458 38,000 -50 Level Miami Center
Sun 12:21:34 PM 22.6467 -73.8972 303° West 393 452 37,900 -50 Descending Miami Center
Sun 12:22:34 PM 22.7072 -73.9972 303° West 388 447 37,900 50 Level Miami Center
Sun 12:23:34 PM 22.7633 -74.0928 303° West 383 441 38,000 50 Climbing Miami Center
Sun 12:24:34 PM 22.8194 -74.1953 301° West 390 449 38,000  Level Miami Center
Sun 12:25:34 PM 22.8797 -74.2931 304° West 390 449 38,000  Level Miami Center
Sun 12:26:34 PM 22.9356 -74.3936 301° West 390 449 38,000  Level Miami Center
Sun 12:27:34 PM 22.9936 -74.4917 303° West 390 449 38,000  Level Miami Center
Sun 12:28:34 PM 23.0494 -74.5900 302° West 390 449 38,000  Level Miami Center
Sun 12:29:34 PM 23.1072 -74.6883 303° West 390 449 38,000  Level Miami Center
Sun 12:30:34 PM 23.1631 -74.7867 302° West 390 449 38,000 -50 Level Miami Center
Sun 12:31:34 PM 23.2208 -74.8831 303° West 390 449 37,900  Descending Miami Center
Sun 12:32:34 PM 23.2764 -74.9861 300° West 384 442 38,000 50 Climbing Miami Center
Sun 12:33:34 PM 23.3339 -75.0828 303° West 384 442 38,000  Level Miami Center
Sun 12:34:34 PM 23.3894 -75.1814 302° West 384 442 38,000  Level Miami Center
Sun 12:35:34 PM 23.4469 -75.2803 302° West 384 442 38,000  Level Miami Center
Sun 12:36:34 PM 23.5022 -75.3794 301° West 384 442 38,000 -50 Level Miami Center
Sun 12:37:34 PM 23.5597 -75.4761 303° West 384 442 37,900  Descending Miami Center
Sun 12:38:34 PM 23.6147 -75.5731 302° West 384 442 38,000 50 Climbing Miami Center
Sun 12:39:34 PM 23.6722 -75.6744 302° West 384 442 38,000  Level Miami Center
Sun 12:40:34 PM 23.7292 -75.7761 301° West 384 442 38,000  Level Miami Center
Sun 12:41:34 PM 23.7822 -75.8733 301° West 384 442 38,000 -50 Level Miami Center
Sun 12:42:34 PM 23.8350 -75.9728 300° West 384 442 37,900  Descending Miami Center
Sun 12:43:34 PM 23.8900 -76.0703 302° West 379 436 38,000 50 Climbing Miami Center
Sun 12:44:34 PM 23.9447 -76.1700 301° West 379 436 38,000  Level Miami Center
Sun 12:45:34 PM 23.9994 -76.2675 302° West 379 436 38,000  Level Miami Center
Sun 12:46:34 PM 24.0542 -76.3697 300° West 384 442 38,000  Level Miami Center
Sun 12:47:34 PM 24.1089 -76.4672 302° West 384 442 38,000  Level Miami Center
Sun 12:48:34 PM 24.1636 -76.5697 300° West 384 442 38,000  Level Miami Center
Sun 12:49:34 PM 24.2158 -76.6628 302° West 378 435 38,000  Level Miami Center
Sun 12:50:34 PM 24.2703 -76.7631 301° West 378 435 38,000  Level Miami Center
Sun 12:51:34 PM 24.3225 -76.8611 300° West 378 435 38,000  Level Miami Center
Sun 12:52:34 PM 24.3769 -76.9614 301° West 378 435 38,000  Level Miami Center
Sun 12:53:34 PM 24.4333 -77.0619 302° West 383 441 38,000  Level Miami Center
Sun 12:54:34 PM 24.4875 -77.1603 301° West 383 441 38,000  Level Miami Center
Sun 12:55:34 PM 24.5417 -77.2633 300° West 383 441 38,000  Level Miami Center
Sun 12:56:34 PM 24.5936 -77.3639 300° West 383 441 38,000  Level Miami Center
Sun 12:57:34 PM 24.6433 -77.4556 301° West 383 441 38,000  Level Miami Center
Sun 12:58:34 PM 24.6992 -77.5589 301° West 383 441 38,000  Level Miami Center
Sun 12:59:34 PM 24.7553 -77.6644 300° West 388 447 38,000  Level Miami Center
Sun 01:00:34 PM 24.8111 -77.7631 302° West 388 447 38,000  Level Miami Center
Sun 01:01:34 PM 24.8669 -77.8667 301° West 388 447 38,000  Level Miami Center
Sun 01:02:34 PM 24.9206 -77.9681 300° West 388 447 38,000  Level Miami Center
Sun 01:03:34 PM 24.9761 -78.0692 301° West 388 447 38,000  Level Miami Center
Sun 01:04:34 PM 25.0336 -78.1753 301° West 388 447 38,000  Level Miami Center
Sun 01:05:34 PM 25.0892 -78.2792 301° West 388 447 38,000  Level Miami Center
Sun 01:06:34 PM 25.1444 -78.3856 300° West 393 452 38,000  Level Miami Center
Sun 01:07:34 PM 25.1997 -78.4894 300° West 398 458 38,000  Level Miami Center
Sun 01:08:34 PM 25.2550 -78.5914 301° West 398 458 38,000 -50 Level Miami Center
Sun 01:09:34 PM 25.3103 -78.6956 300° West 398 458 37,900 -50 Descending Miami Center
Sun 01:10:34 PM 25.3653 -78.7997 300° West 398 458 37,900 50 Level Miami Center
Sun 01:11:34 PM 25.4183 -78.9042 299° West 398 458 38,000 50 Climbing Miami Center
Sun 01:12:34 PM 25.4753 -79.0089 301° West 398 458 38,000  Level Miami Center
Sun 01:13:34 PM 25.5303 -79.1089 301° West 398 458 38,000 -300 Level Miami Center
Sun 01:14:34 PM 25.5808 -79.2156 298° West 393 452 37,400 -750 Descending Miami Center
Sun 01:15:34 PM 25.6333 -79.3158 300° West 387 445 36,500 -1,000 Descending Miami Center
Sun 01:16:34 PM 25.6942 -79.4322 300° West 392 451 35,400 -1,000 Descending Miami Center
Sun 01:17:34 PM 25.7447 -79.5303 300° West 398 458 34,500 -1,000 Descending Miami Center
Sun 01:18:34 PM 25.8053 -79.6469 300° West 403 464 33,400 -1,000 Descending Miami Center
Sun 01:19:34 PM 25.8556 -79.7450 300° West 403 464 32,500 -1,000 Descending Miami Center
Sun 01:20:34 PM 25.9197 -79.8692 300° West 403 464 31,400 -1,000 Descending Miami Center
Sun 01:21:34 PM 25.9719 -79.9697 300° West 418 481 30,500 -700 Descending Miami Center
Sun 01:22:34 PM 26.0344 -80.0778 303° West 425 489 30,000 -250 Descending Miami Center
Sun 01:23:34 PM 26.1386 -80.1847 317° Northwest 451 519 30,000  Level Miami Center
Sun 01:24:34 PM 26.2269 -80.2472 328° Northwest 437 503 30,000 -1,350 Level Miami Center
Sun 01:25:34 PM 26.3447 -80.3042 337° Northwest 419 482 27,300 -1,850 Descending Miami Center
Sun 01:26:34 PM 26.4397 -80.3508 336° Northwest 414 476 26,300 -1,050 Descending Miami Center
Sun 01:27:34 PM 26.5553 -80.4078 336° Northwest 414 476 25,200 -1,000 Descending Miami Center
Sun 01:28:34 PM 26.6481 -80.4547 336° Northwest 414 476 24,300 -950 Descending Miami Center
Sun 01:29:34 PM 26.7594 -80.5117 335° Northwest 409 471 23,300 -1,000 Descending Miami Center
Sun 01:30:34 PM 26.8481 -80.5608 334° Northwest 397 457 22,300 -1,000 Descending Miami Center
Sun 01:31:34 PM 26.9489 -80.6108 336° Northwest 397 457 21,300 -1,000 Descending Miami Center
Sun 01:32:34 PM 27.0481 -80.6606 336° Northwest 397 457 20,300 -1,000 Descending Miami Center
Sun 01:33:34 PM 27.1469 -80.7106 336° Northwest 397 457 19,300 -950 Descending Miami Center
Sun 01:34:34 PM 27.2478 -80.7606 336° Northwest 392 451 18,400 -950 Descending Miami Center
Sun 01:35:34 PM 27.3447 -80.8106 335° Northwest 392 451 17,400 -750 Descending Miami Center
Sun 01:36:34 PM 27.4372 -80.8581 336° Northwest 385 443 16,900 -700 Descending Miami Center
Sun 01:37:34 PM 27.5381 -80.9086 336° Northwest 374 430 16,000 -1,150 Descending Miami Center
Sun 01:38:34 PM 27.6328 -80.9539 337° Northwest 369 425 14,600 -1,194 Descending Miami Center
Sun 01:41:10 PM 27.8667 -81.0833 334° Northwest 351 404 11,700 -1,024 Descending Orlando TRACON
Sun 01:41:59 PM 27.9333 -81.1167 336° Northwest 348 400 11,100 -365 Descending Orlando TRACON
Sun 01:43:05 PM 28.0333 -81.1500 344° North 353 406 11,000 -381 Descending Orlando TRACON
Sun 01:44:05 PM 28.1167 -81.2000 332° Northwest 324 373 10,300 -500 Descending Orlando TRACON
Sun 01:45:05 PM 28.2000 -81.2500 332° Northwest 304 350 10,000 -100 Descending Orlando TRACON
Sun 01:46:05 PM 28.2667 -81.3000 327° Northwest 304 350 10,100  Climbing Orlando TRACON
Sun 01:46:59 PM 28.3333 -81.3500 327° Northwest 304 350 10,000 -261 Descending Orlando TRACON
Sun 01:48:00 PM 28.4000 -81.4000 327° Northwest 282 325 9,600 -744 Descending Orlando TRACON
Sun 01:49:00 PM 28.4667 -81.4167 348° North 249 287 8,500 -1,550 Descending Orlando TRACON
Sun 01:50:00 PM 28.5333 -81.4333 348° North 246 283 6,500 -1,966 Descending Orlando TRACON
Sun 01:50:59 PM 28.6000 -81.4167 12° North 234 269 4,600 -1,800 Descending Orlando TRACON
Sun 01:52:00 PM 28.6333 -81.3500 60° Northeast 225 259 2,900 -992 Descending Orlando TRACON
Sun 01:53:00 PM 28.5833 -81.3333 164° South 186 214 2,600 -300 Descending Orlando TRACON
Sun 01:54:00 PM 28.5333 -81.3333 180° South 175 201 2,300 -857 Descending Orlando TRACON
Sun 01:55:06 PM 28.4833 -81.3333 180° South 138 159 800 -1,364 Descending Orlando TRACON

Login

Don't have an account? Register now (free) for customized features, flight alerts, and more!